Time;durP1;ratioP1;P1;durP2;ratioP2;P2;SDS_P1;SDS_P2;PMS_P1;PMS_P2;Temp;Humidity;BMP_temperature;BMP_pressure;BME280_temperature;BME280_humidity;BME280_pressure;Samples;Min_cycle;Max_cycle;Signal;HPM_P1;HPM_P2
2023/09/11 00:01:03;;;;;;;12.10;9.23;;;19.50;1.00;;;;;;7368764;19;20030;-68
2023/09/11 00:03:33;;;;;;;14.88;8.88;;;19.50;1.00;;;;;;7364528;19;20014;-68
2023/09/11 00:06:08;;;;;;;11.95;9.18;;;19.60;1.00;;;;;;7370841;19;20015;-69
2023/09/11 00:08:41;;;;;;;14.48;9.35;;;19.60;1.00;;;;;;7370297;19;20049;-67
2023/09/11 00:11:11;;;;;;;11.98;9.38;;;19.60;1.00;;;;;;7369870;19;20007;-67
2023/09/11 00:13:44;;;;;;;14.18;9.07;;;19.60;1.00;;;;;;7366492;19;20022;-68
2023/09/11 00:16:14;;;;;;;12.82;9.38;;;19.60;1.00;;;;;;7368499;19;20014;-68
2023/09/11 00:18:44;;;;;;;11.95;9.43;;;19.70;1.00;;;;;;7368712;19;20017;-68
2023/09/11 00:21:15;;;;;;;11.23;9.18;;;19.70;1.00;;;;;;7368917;19;20018;-67
2023/09/11 00:23:47;;;;;;;14.00;9.48;;;19.70;1.00;;;;;;7365420;19;20010;-68
2023/09/11 00:26:17;;;;;;;11.90;10.23;;;19.70;1.00;;;;;;7368540;19;20011;-68
2023/09/11 00:28:50;;;;;;;14.02;10.10;;;19.70;1.00;;;;;;7370045;19;20010;-68
2023/09/11 00:31:21;;;;;;;12.10;9.63;;;19.70;1.00;;;;;;7368696;19;20022;-68
2023/09/11 00:33:51;;;;;;;10.50;9.45;;;19.70;1.00;;;;;;7365793;19;20051;-67
2023/09/11 00:36:21;;;;;;;10.77;9.48;;;19.60;1.00;;;;;;7367719;19;20017;-67
2023/09/11 00:38:53;;;;;;;11.13;8.98;;;19.60;1.00;;;;;;7369982;19;20010;-67
2023/09/11 00:41:23;;;;;;;13.25;10.13;;;19.60;1.00;;;;;;7369023;19;20094;-67
2023/09/11 00:43:53;;;;;;;17.77;9.98;;;19.60;1.00;;;;;;7362832;19;20599;-68
2023/09/11 00:46:24;;;;;;;11.10;9.40;;;19.60;1.00;;;;;;7366903;19;20435;-68
2023/09/11 00:48:56;;;;;;;12.60;9.60;;;19.60;1.00;;;;;;7369644;19;20014;-67
2023/09/11 00:51:26;;;;;;;12.00;9.93;;;19.60;1.00;;;;;;7368657;19;20082;-68
2023/09/11 00:53:59;;;;;;;12.25;10.00;;;19.50;1.00;;;;;;7364100;19;20032;-68
2023/09/11 00:56:29;;;;;;;12.18;10.18;;;19.40;1.00;;;;;;7368196;19;20019;-68
2023/09/11 00:59:00;;;;;;;11.85;9.85;;;19.40;1.00;;;;;;7370093;19;20046;-68
2023/09/11 01:01:30;;;;;;;12.25;9.48;;;19.50;1.00;;;;;;7368643;19;20069;-68
2023/09/11 01:04:00;;;;;;;12.43;10.45;;;19.50;1.00;;;;;;7365330;19;20010;-68
2023/09/11 01:06:31;;;;;;;13.55;10.60;;;19.50;1.00;;;;;;7368837;19;20521;-67
2023/09/11 01:09:04;;;;;;;15.93;10.85;;;19.50;1.00;;;;;;7369284;19;20088;-67
2023/09/11 01:11:34;;;;;;;13.65;10.52;;;19.50;1.00;;;;;;7367477;19;20086;-68
2023/09/11 01:14:04;;;;;;;14.27;10.65;;;19.50;1.00;;;;;;7368611;19;20031;-68
2023/09/11 01:16:42;;;;;;;12.20;10.43;;;19.50;1.00;;;;;;7376504;19;20018;-68
2023/09/11 01:19:26;;;;;;;14.65;10.45;;;19.50;1.00;;;;;;7377568;19;20011;-66
2023/09/11 01:22:13;;;;;;;14.93;10.73;;;19.50;1.00;;;;;;7375480;19;20028;-67
2023/09/11 01:25:09;;;;;;;11.75;10.55;;;19.40;1.00;;;;;;7370546;19;20798;-67
2023/09/11 01:27:59;;;;;;;14.85;11.20;;;19.40;1.00;;;;;;7375766;19;20018;-68
2023/09/11 01:30:32;;;;;;;13.68;10.73;;;19.40;1.00;;;;;;7374008;19;20014;-68
2023/09/11 01:33:02;;;;;;;14.63;10.65;;;19.30;1.00;;;;;;7370325;19;20010;-67
2023/09/11 01:35:32;;;;;;;17.27;11.20;;;19.20;1.00;;;;;;7374066;19;20344;-68
2023/09/11 01:38:03;;;;;;;12.98;11.57;;;19.20;1.00;;;;;;7374933;19;20049;-68
2023/09/11 01:40:37;;;;;;;13.27;10.63;;;19.20;1.00;;;;;;7374964;19;20015;-68
2023/09/11 01:43:10;;;;;;;14.43;11.52;;;19.10;1.00;;;;;;7370105;19;20118;-68
2023/09/11 01:45:44;;;;;;;14.60;11.68;;;19.20;1.00;;;;;;7375125;19;20014;-69
2023/09/11 01:48:15;;;;;;;14.73;11.30;;;19.20;1.00;;;;;;7374941;19;20038;-68
2023/09/11 01:50:45;;;;;;;13.75;11.05;;;19.30;1.00;;;;;;7374326;19;20279;-68
2023/09/11 01:53:15;;;;;;;12.90;11.25;;;19.20;1.00;;;;;;7369982;19;20022;-67
2023/09/11 01:55:46;;;;;;;13.98;10.85;;;19.20;1.00;;;;;;7374828;19;20088;-68
2023/09/11 01:58:16;;;;;;;13.27;10.85;;;19.30;1.00;;;;;;7375028;19;20030;-69
2023/09/11 02:00:49;;;;;;;15.48;10.77;;;19.30;1.00;;;;;;7375179;19;20006;-68
2023/09/11 02:03:19;;;;;;;14.00;11.02;;;19.30;1.00;;;;;;7370275;19;20498;-68
2023/09/11 02:05:49;;;;;;;13.88;11.30;;;19.30;1.00;;;;;;7374394;19;20027;-68
2023/09/11 02:08:19;;;;;;;15.32;11.23;;;19.20;1.00;;;;;;7374795;19;20022;-69
2023/09/11 02:10:49;;;;;;;14.32;11.07;;;19.30;1.00;;;;;;7371477;19;20025;-66
2023/09/11 02:13:19;;;;;;;14.32;11.35;;;19.20;1.00;;;;;;7366351;19;20018;-67
2023/09/11 02:15:52;;;;;;;15.98;11.70;;;19.20;1.00;;;;;;7372978;19;20022;-68
2023/09/11 02:18:22;;;;;;;15.27;11.65;;;19.10;1.00;;;;;;7372252;19;20018;-68
2023/09/11 02:20:52;;;;;;;13.27;11.07;;;19.10;1.00;;;;;;7373466;19;20018;-68
2023/09/11 02:23:22;;;;;;;14.27;11.63;;;19.00;1.80;;;;;;7367809;19;20705;-68
2023/09/11 02:25:53;;;;;;;14.50;10.70;;;18.90;6.80;;;;;;7372377;19;20106;-69
2023/09/11 02:28:23;;;;;;;13.00;11.00;;;18.80;9.40;;;;;;7372378;19;20046;-68
2023/09/11 02:30:57;;;;;;;14.73;11.68;;;18.80;11.50;;;;;;7373181;19;20098;-68
2023/09/11 02:33:27;;;;;;;13.85;11.35;;;18.80;10.80;;;;;;7368272;19;21512;-68
2023/09/11 02:35:59;;;;;;;14.15;11.48;;;18.70;11.30;;;;;;7372488;19;20051;-68
2023/09/11 02:38:29;;;;;;;15.02;11.50;;;18.60;15.00;;;;;;7372389;19;20031;-68
2023/09/11 02:40:59;;;;;;;16.65;12.07;;;18.50;18.50;;;;;;7373139;19;20094;-68
2023/09/11 02:43:39;;;;;;;13.50;11.35;;;18.40;20.20;;;;;;7368927;19;20011;-68
2023/09/11 02:46:11;;;;;;;18.08;11.70;;;18.50;24.10;;;;;;7372439;19;20014;-69
2023/09/11 02:48:47;;;;;;;16.08;12.45;;;18.40;23.20;;;;;;7373439;19;20010;-68
2023/09/11 02:51:17;;;;;;;15.38;12.32;;;18.40;25.30;;;;;;7372577;19;20419;-68
2023/09/11 02:53:47;;;;;;;14.48;12.18;;;18.40;27.30;;;;;;7368085;19;20010;-68
2023/09/11 02:56:17;;;;;;;19.40;14.70;;;18.40;26.20;;;;;;7370998;19;20486;-69
2023/09/11 02:58:47;;;;;;;15.93;12.95;;;18.40;27.40;;;;;;7374154;19;20013;-68
2023/09/11 03:01:20;;;;;;;15.65;12.40;;;18.50;28.80;;;;;;7369681;19;20024;-68
2023/09/11 03:03:50;;;;;;;13.90;11.63;;;18.30;28.20;;;;;;7368746;19;20010;-69
2023/09/11 03:06:20;;;;;;;13.85;12.10;;;18.20;35.10;;;;;;7371096;19;20034;-69
2023/09/11 03:08:50;;;;;;;18.15;12.90;;;18.20;32.70;;;;;;7373094;19;20014;-68
2023/09/11 03:11:20;;;;;;;15.63;12.27;;;18.00;38.60;;;;;;7371437;19;20437;-68
2023/09/11 03:13:51;;;;;;;13.25;11.63;;;18.00;41.20;;;;;;7368994;19;20017;-68
2023/09/11 03:16:24;;;;;;;17.10;12.55;;;17.90;42.50;;;;;;7371098;19;20018;-68
2023/09/11 03:18:55;;;;;;;13.73;11.20;;;17.90;43.80;;;;;;7372491;19;20359;-68
2023/09/11 03:21:25;;;;;;;18.95;11.35;;;17.80;47.90;;;;;;7371712;19;20010;-69
2023/09/11 03:23:55;;;;;;;12.60;11.30;;;17.80;45.50;;;;;;7367153;19;20014;-68
2023/09/11 03:26:25;;;;;;;14.80;11.30;;;17.80;44.20;;;;;;7368995;19;20336;-69
2023/09/11 03:28:55;;;;;;;14.90;10.98;;;17.80;47.30;;;;;;7371871;19;20014;-68
2023/09/11 03:31:30;;;;;;;13.05;11.57;;;17.80;47.80;;;;;;7371808;19;20078;-69
2023/09/11 03:33:59;;;;;;;13.98;11.77;;;17.70;48.70;;;;;;7366852;19;20017;-68
2023/09/11 03:36:30;;;;;;;12.95;10.57;;;17.60;55.10;;;;;;7368089;19;20018;-68
2023/09/11 03:39:00;;;;;;;13.32;11.52;;;17.60;55.10;;;;;;7371736;19;20018;-69
2023/09/11 03:41:30;;;;;;;15.48;11.20;;;17.60;55.60;;;;;;7371576;19;20328;-68
2023/09/11 03:44:00;;;;;;;13.23;11.23;;;17.60;55.40;;;;;;7365833;19;20606;-69
2023/09/11 03:46:33;;;;;;;12.38;11.05;;;17.60;55.40;;;;;;7371041;19;20007;-68
2023/09/11 03:49:03;;;;;;;16.98;12.05;;;17.60;55.20;;;;;;7371140;19;20018;-69
2023/09/11 03:51:33;;;;;;;16.45;12.68;;;17.60;54.90;;;;;;7370493;19;20022;-69
2023/09/11 03:54:09;;;;;;;14.50;12.85;;;17.70;54.90;;;;;;7365886;19;20486;-69
2023/09/11 03:56:39;;;;;;;16.85;12.90;;;17.80;58.00;;;;;;7371948;19;20405;-68
2023/09/11 03:59:09;;;;;;;16.25;12.48;;;17.80;55.70;;;;;;7371255;19;20471;-68
2023/09/11 04:01:41;;;;;;;16.48;13.40;;;17.90;54.50;;;;;;7371203;19;20018;-68
2023/09/11 04:04:11;;;;;;;16.77;14.25;;;17.90;56.90;;;;;;7364999;19;20090;-68
2023/09/11 04:06:41;;;;;;;17.35;13.07;;;17.90;58.60;;;;;;7372352;19;20021;-68
2023/09/11 04:09:11;;;;;;;16.95;13.95;;;17.90;58.30;;;;;;7371266;19;20018;-68
2023/09/11 04:11:41;;;;;;;19.27;13.77;;;18.00;56.80;;;;;;7369563;19;20010;-68
2023/09/11 04:14:11;;;;;;;18.02;14.43;;;18.10;54.10;;;;;;7365063;19;20019;-68
2023/09/11 04:16:44;;;;;;;19.13;13.95;;;18.10;53.10;;;;;;7371631;19;20015;-68
2023/09/11 04:19:14;;;;;;;18.65;14.68;;;18.00;54.70;;;;;;7370477;19;20007;-68
2023/09/11 04:21:44;;;;;;;18.45;14.15;;;18.00;52.00;;;;;;7370340;19;20041;-68
2023/09/11 04:24:15;;;;;;;18.55;15.02;;;18.00;54.40;;;;;;7364725;19;20601;-68
2023/09/11 04:26:45;;;;;;;18.35;14.52;;;18.00;54.10;;;;;;7371412;19;20039;-68
2023/09/11 04:29:15;;;;;;;19.83;14.65;;;18.00;54.40;;;;;;7370291;19;20090;-68
2023/09/11 04:31:47;;;;;;;17.17;14.57;;;18.00;54.50;;;;;;7368566;19;20048;-68
2023/09/11 04:34:17;;;;;;;17.17;14.65;;;18.10;53.40;;;;;;7364811;19;20010;-68
2023/09/11 04:36:47;;;;;;;14.93;13.05;;;18.00;50.40;;;;;;7370792;19;20010;-68
2023/09/11 04:39:17;;;;;;;17.52;13.80;;;18.00;49.50;;;;;;7369932;19;20020;-68
2023/09/11 04:41:47;;;;;;;18.73;14.20;;;18.00;49.60;;;;;;7369813;19;20027;-68
2023/09/11 04:44:17;;;;;;;19.17;13.50;;;18.00;47.00;;;;;;7364629;19;20052;-68
2023/09/11 04:46:49;;;;;;;18.80;13.93;;;18.00;48.30;;;;;;7370136;19;20014;-68
2023/09/11 04:49:19;;;;;;;15.63;13.55;;;17.90;47.70;;;;;;7376592;19;20038;-69
2023/09/11 04:51:49;;;;;;;15.15;13.32;;;17.90;53.20;;;;;;7375412;19;20778;-68
2023/09/11 04:54:19;;;;;;;15.30;12.90;;;17.90;53.80;;;;;;7369090;19;20048;-68
2023/09/11 04:56:49;;;;;;;17.15;13.25;;;17.80;49.00;;;;;;7376566;19;20014;-67
2023/09/11 04:59:19;;;;;;;16.83;13.57;;;17.90;52.20;;;;;;7375830;19;20034;-68
2023/09/11 05:01:52;;;;;;;17.08;13.77;;;17.80;49.60;;;;;;7375423;19;20019;-68
2023/09/11 05:04:22;;;;;;;15.27;13.07;;;17.80;49.80;;;;;;7369970;19;20014;-68
2023/09/11 05:06:53;;;;;;;18.92;13.95;;;17.90;49.10;;;;;;7376259;19;20385;-68
2023/09/11 05:09:22;;;;;;;16.45;13.60;;;17.90;45.90;;;;;;7376486;19;20505;-68
2023/09/11 05:11:52;;;;;;;16.52;13.48;;;18.00;40.40;;;;;;7374972;19;20027;-68
2023/09/11 05:14:22;;;;;;;18.98;13.75;;;18.30;26.90;;;;;;7370254;19;20779;-68
2023/09/11 05:16:55;;;;;;;18.17;13.88;;;18.60;15.80;;;;;;7375643;19;20017;-68
2023/09/11 05:19:25;;;;;;;18.88;13.60;;;19.20;1.00;;;;;;7373725;19;20032;-68
2023/09/11 05:21:56;;;;;;;15.77;12.82;;;19.50;1.00;;;;;;7374553;19;20479;-68
2023/09/11 05:24:26;;;;;;;17.20;13.30;;;19.90;1.00;;;;;;7369820;19;20125;-68
2023/09/11 05:26:56;;;;;;;16.75;12.30;;;20.20;1.00;;;;;;7375537;19;20021;-68
2023/09/11 05:29:26;;;;;;;33.50;13.73;;;20.40;1.00;;;;;;7375084;19;20280;-68
2023/09/11 05:31:59;;;;;;;20.35;15.68;;;19.30;1.00;;;;;;7374256;19;20359;-68
2023/09/11 05:34:29;;;;;;;19.17;16.02;;;19.00;1.00;;;;;;7368985;19;20318;-68
2023/09/11 05:36:59;;;;;;;24.33;16.75;;;18.80;3.40;;;;;;7374661;19;20018;-68
2023/09/11 05:39:29;;;;;;;21.65;14.93;;;18.70;7.10;;;;;;7374631;19;20057;-68
2023/09/11 05:41:59;;;;;;;18.13;14.05;;;18.70;9.10;;;;;;7375724;19;20031;-68
2023/09/11 05:44:29;;;;;;;16.40;13.13;;;18.90;7.40;;;;;;7369342;19;20010;-68
2023/09/11 05:47:01;;;;;;;18.23;12.93;;;18.90;5.00;;;;;;7378402;19;20556;-68
2023/09/11 05:49:31;;;;;;;18.52;13.43;;;19.00;4.30;;;;;;7374293;19;20018;-68
2023/09/11 05:52:01;;;;;;;14.95;12.07;;;19.00;1.00;;;;;;7373587;19;20027;-68
2023/09/11 05:54:33;;;;;;;19.23;12.05;;;19.20;1.00;;;;;;7367954;19;20471;-68
2023/09/11 05:57:04;;;;;;;18.10;12.70;;;19.20;1.00;;;;;;7372999;19;20015;-68
2023/09/11 05:59:34;;;;;;;19.00;13.50;;;19.30;1.00;;;;;;7372132;19;20022;-68
2023/09/11 06:02:07;;;;;;;15.27;11.98;;;19.40;1.00;;;;;;7372768;19;20015;-67
2023/09/11 06:04:37;;;;;;;17.15;13.00;;;19.40;1.00;;;;;;7367765;19;20042;-68
2023/09/11 06:07:07;;;;;;;17.15;11.98;;;19.40;1.00;;;;;;7374666;19;20018;-68
2023/09/11 06:09:37;;;;;;;17.98;11.90;;;19.50;1.00;;;;;;7373572;19;20011;-68
2023/09/11 06:12:08;;;;;;;17.15;11.85;;;19.60;1.00;;;;;;7373085;19;20624;-67
2023/09/11 06:14:38;;;;;;;15.18;11.82;;;19.70;1.00;;;;;;7368018;19;20116;-68
2023/09/11 06:17:11;;;;;;;18.35;12.00;;;19.80;1.00;;;;;;7373566;19;20030;-68
2023/09/11 06:19:41;;;;;;;16.08;11.65;;;19.80;1.00;;;;;;7373337;19;20014;-68
2023/09/11 06:22:11;;;;;;;18.25;13.25;;;19.80;1.00;;;;;;7373156;19;20050;-68
2023/09/11 06:24:41;;;;;;;16.38;12.95;;;20.00;1.00;;;;;;7366912;19;20039;-68
2023/09/11 06:27:13;;;;;;;16.42;12.52;;;20.00;1.00;;;;;;7373223;19;20092;-68
2023/09/11 06:29:43;;;;;;;17.55;12.35;;;20.10;1.00;;;;;;7374775;19;20018;-69
2023/09/11 06:32:16;;;;;;;17.20;13.50;;;20.30;1.00;;;;;;7373639;19;20381;-68
2023/09/11 06:34:46;;;;;;;16.58;12.95;;;20.50;1.00;;;;;;7368360;19;20011;-68
2023/09/11 06:37:16;;;;;;;15.70;13.13;;;20.30;1.00;;;;;;7372838;19;20031;-68
2023/09/11 06:39:46;;;;;;;17.50;13.25;;;20.30;1.00;;;;;;7373122;19;20031;-68
2023/09/11 06:42:22;;;;;;;18.80;13.60;;;20.40;1.00;;;;;;7372778;19;20529;-68
2023/09/11 06:44:55;;;;;;;14.45;12.18;;;20.50;1.00;;;;;;7365542;19;20125;-68
2023/09/11 06:47:28;;;;;;;15.40;11.20;;;20.70;1.00;;;;;;7373201;19;20054;-67
2023/09/11 06:49:58;;;;;;;13.73;11.68;;;20.60;1.00;;;;;;7372527;19;20014;-68
2023/09/11 06:52:28;;;;;;;16.02;12.23;;;20.70;1.00;;;;;;7371497;19;20018;-68
2023/09/11 06:54:58;;;;;;;20.48;11.95;;;20.70;1.00;;;;;;7365456;19;20442;-68
2023/09/11 06:57:28;;;;;;;17.10;10.70;;;20.60;1.00;;;;;;7369660;19;20022;-68
2023/09/11 06:59:58;;;;;;;18.73;11.20;;;20.90;1.00;;;;;;7368497;19;20033;-68
2023/09/11 07:02:31;;;;;;;16.48;11.75;;;21.20;1.00;;;;;;7369748;19;20015;-69
2023/09/11 07:05:04;;;;;;;16.27;11.98;;;21.20;1.00;;;;;;7368379;19;20015;-67
2023/09/11 07:07:34;;;;;;;16.52;12.23;;;21.20;1.00;;;;;;7387085;19;20046;-69
2023/09/11 07:10:04;;;;;;;18.15;12.70;;;21.30;1.00;;;;;;7389213;19;20019;-67
2023/09/11 07:12:34;;;;;;;15.48;11.88;;;21.40;1.00;;;;;;7389714;19;20035;-69
2023/09/11 07:15:15;;;;;;;16.40;11.85;;;21.50;1.00;;;;;;7385380;19;20094;-68
2023/09/11 07:17:48;;;;;;;20.02;11.48;;;21.50;1.00;;;;;;7390092;19;20034;-68
2023/09/11 07:20:19;;;;;;;;;;;21.50;1.00;;;;;;7390500;19;20018;-68
2023/09/11 07:22:49;;;;;;;16.80;11.23;;;21.70;1.00;;;;;;7389579;19;19918;-68
2023/09/11 07:25:22;;;;;;;17.65;11.32;;;21.70;1.00;;;;;;7388988;19;20015;-68
2023/09/11 07:27:55;;;;;;;14.18;10.95;;;21.90;1.00;;;;;;7389833;19;20042;-69
2023/09/11 07:30:27;;;;;;;15.93;11.38;;;22.00;1.00;;;;;;7387970;19;20022;-68
2023/09/11 07:33:00;;;;;;;15.82;11.00;;;22.20;1.00;;;;;;7362817;19;20466;-68
2023/09/11 07:35:30;;;;;;;14.02;10.65;;;22.10;1.00;;;;;;7387979;19;20018;-68
2023/09/11 07:38:02;;;;;;;17.02;11.00;;;22.20;1.00;;;;;;7389855;19;20018;-68
2023/09/11 07:40:32;;;;;;;14.48;11.10;;;22.40;1.00;;;;;;7389251;19;20025;-67
2023/09/11 07:43:05;;;;;;;20.90;10.95;;;22.40;1.00;;;;;;7389478;19;20015;-68
2023/09/11 07:45:36;;;;;;;15.75;10.90;;;22.50;1.00;;;;;;7388536;19;20021;-68
2023/09/11 07:48:09;;;;;;;19.42;10.25;;;22.60;1.00;;;;;;7389516;19;20053;-68
2023/09/11 07:50:42;;;;;;;14.77;10.10;;;22.90;1.00;;;;;;7388161;19;20014;-68
2023/09/11 07:53:14;;;;;;;14.88;11.30;;;23.00;1.00;;;;;;7384568;19;20359;-71
2023/09/11 07:55:44;;;;;;;19.58;10.50;;;22.70;1.00;;;;;;7386846;19;20101;-70
2023/09/11 07:58:14;;;;;;;17.55;10.52;;;22.80;1.00;;;;;;7387963;19;20310;-70
2023/09/11 08:00:44;;;;;;;21.95;10.60;;;23.10;1.00;;;;;;7388900;19;20732;-70
2023/09/11 08:03:16;;;;;;;15.18;9.50;;;23.30;1.00;;;;;;7388085;19;20729;-69
2023/09/11 08:05:47;;;;;;;15.13;10.27;;;23.60;1.00;;;;;;7389632;19;20014;-69
2023/09/11 08:08:17;;;;;;;13.52;9.90;;;23.80;1.00;;;;;;7388315;19;20518;-69
2023/09/11 08:10:47;;;;;;;15.30;9.98;;;23.70;1.00;;;;;;7388638;19;20018;-70
2023/09/11 08:13:17;;;;;;;13.18;10.27;;;23.70;1.00;;;;;;7388618;19;20019;-70
2023/09/11 08:15:47;;;;;;;13.55;10.48;;;23.80;1.00;;;;;;7386283;19;20022;-69
2023/09/11 08:18:21;;;;;;;12.75;9.52;;;23.80;1.00;;;;;;7386931;19;20027;-69
2023/09/11 08:20:52;;;;;;;;;;;23.80;1.00;;;;;;7390068;19;20074;-70
2023/09/11 08:23:22;;;;;;;15.35;10.50;;;24.00;1.00;;;;;;7392215;19;19945;-68
2023/09/11 08:25:52;;;;;;;14.35;9.80;;;24.00;1.00;;;;;;7395223;19;20027;-70
2023/09/11 08:28:22;;;;;;;19.30;10.55;;;23.80;1.00;;;;;;7393552;19;20279;-70
2023/09/11 08:30:52;;;;;;;12.18;9.65;;;24.10;1.00;;;;;;7394422;19;20021;-70
2023/09/11 08:33:25;;;;;;;20.63;9.82;;;24.10;1.00;;;;;;7393538;19;20007;-70
2023/09/11 08:36:10;;;;;;;9.93;8.65;;;24.30;1.00;;;;;;7393210;19;20014;-70
2023/09/11 08:38:44;;;;;;;10.70;7.82;;;24.70;1.00;;;;;;7393433;19;20510;-70
2023/09/11 08:41:16;;;;;;;13.52;8.43;;;24.60;1.00;;;;;;7394975;19;20235;-69
2023/09/11 08:43:47;;;;;;;11.25;7.15;;;24.50;1.00;;;;;;7395182;19;20030;-70
2023/09/11 08:46:18;;;;;;;10.13;7.65;;;24.80;1.00;;;;;;7391896;19;20017;-69
2023/09/11 08:48:55;;;;;;;10.27;7.30;;;24.80;1.00;;;;;;7395422;19;20007;-70
2023/09/11 08:51:31;;;;;;;11.50;7.85;;;24.80;1.00;;;;;;7393065;19;20010;-71
2023/09/11 08:54:02;;;;;;;9.35;7.57;;;24.60;1.00;;;;;;7393931;19;20495;-68
2023/09/11 08:56:33;;;;;;;11.15;7.53;;;25.00;1.00;;;;;;7391743;19;20030;-70
2023/09/11 08:59:05;;;;;;;9.70;7.38;;;25.10;1.00;;;;;;7393882;19;20028;-70
2023/09/11 09:01:35;;;;;;;10.23;8.23;;;25.00;1.00;;;;;;7393072;19;20014;-70
2023/09/11 09:04:11;;;;;;;10.98;8.15;;;24.80;1.00;;;;;;7390996;19;20331;-70
2023/09/11 09:06:41;;;;;;;9.85;7.50;;;25.10;1.00;;;;;;7393059;19;20015;-70
2023/09/11 09:09:14;;;;;;;9.35;7.07;;;25.40;1.00;;;;;;7392099;19;20056;-70
2023/09/11 09:11:48;;;;;;;11.15;7.80;;;25.70;1.00;;;;;;7392481;19;20494;-69
2023/09/11 09:14:20;;;;;;;12.50;7.65;;;25.80;1.00;;;;;;7392136;19;20015;-69
2023/09/11 09:16:51;;;;;;;15.60;7.45;;;25.80;1.00;;;;;;7393509;19;20066;-70
2023/09/11 09:19:23;;;;;;;9.15;7.20;;;25.80;1.00;;;;;;7393156;19;20017;-69
2023/09/11 09:22:10;;;;;;;11.00;7.32;;;25.70;1.00;;;;;;7391955;19;20034;-69
2023/09/11 09:24:49;;;;;;;7.82;6.68;;;25.70;1.00;;;;;;7389664;19;20010;-69
2023/09/11 09:27:20;;;;;;;12.05;7.30;;;25.70;1.00;;;;;;7392816;19;20010;-69
2023/09/11 09:29:50;;;;;;;12.63;7.25;;;25.70;1.00;;;;;;7393303;19;20031;-69
2023/09/11 09:32:20;;;;;;;11.88;7.38;;;25.80;1.00;;;;;;7391770;19;20015;-69
2023/09/11 09:34:57;;;;;;;13.63;7.32;;;25.90;1.00;;;;;;7387235;19;20082;-69
2023/09/11 09:37:27;;;;;;;8.05;6.78;;;26.10;1.00;;;;;;7392242;19;20025;-70
2023/09/11 09:39:57;;;;;;;11.63;6.50;;;26.30;1.00;;;;;;7393084;19;20010;-69
2023/09/11 09:42:27;;;;;;;8.35;6.80;;;26.30;1.00;;;;;;7392368;19;20424;-69
2023/09/11 09:44:58;;;;;;;9.27;7.03;;;26.30;1.00;;;;;;7389729;19;20019;-69
2023/09/11 09:47:28;;;;;;;15.90;7.05;;;26.30;1.00;;;;;;7389674;19;20126;-70
2023/09/11 09:50:03;;;;;;;8.00;6.50;;;26.30;1.00;;;;;;7392012;19;20023;-69
2023/09/11 09:52:33;;;;;;;10.05;6.47;;;26.40;1.00;;;;;;7392618;19;20010;-70
2023/09/11 09:55:08;;;;;;;7.60;6.50;;;26.30;1.00;;;;;;7391604;19;20047;-69
2023/09/11 09:57:38;;;;;;;13.95;7.30;;;26.50;1.00;;;;;;7391524;19;20018;-68
2023/09/11 10:00:10;;;;;;;13.43;6.68;;;26.40;1.00;;;;;;7392402;19;20090;-69
2023/09/11 10:02:40;;;;;;;10.35;7.00;;;26.50;1.00;;;;;;7386534;19;20014;-68
2023/09/11 10:05:13;;;;;;;8.45;6.50;;;26.80;1.00;;;;;;7389867;19;20042;-70
2023/09/11 10:07:45;;;;;;;6.68;5.70;;;27.00;1.00;;;;;;7391289;19;20466;-70
2023/09/11 10:10:23;;;;;;;12.57;6.40;;;27.00;1.00;;;;;;7392476;19;20018;-70
2023/09/11 10:13:03;;;;;;;10.98;5.70;;;27.10;1.00;;;;;;7392145;19;20024;-70
2023/09/11 10:15:34;;;;;;;11.30;5.90;;;27.00;1.00;;;;;;7389936;19;20021;-69
2023/09/11 10:18:05;;;;;;;10.23;6.22;;;26.90;1.00;;;;;;7391968;19;20010;-69
2023/09/11 10:20:38;;;;;;;8.57;6.00;;;26.90;1.00;;;;;;7390427;19;20031;-70
2023/09/11 10:23:09;;;;;;;9.30;6.17;;;27.10;1.00;;;;;;7391248;19;20010;-71
2023/09/11 10:25:41;;;;;;;9.10;5.22;;;27.30;1.00;;;;;;7390410;19;20015;-70
2023/09/11 10:28:16;;;;;;;11.50;5.75;;;27.40;1.00;;;;;;7392064;19;20018;-70
2023/09/11 10:30:53;;;;;;;8.73;5.82;;;27.40;1.00;;;;;;7391113;19;20014;-70
2023/09/11 10:33:39;;;;;;;9.43;5.60;;;27.50;1.00;;;;;;7390527;19;20022;-71
2023/09/11 10:36:16;;;;;;;8.25;5.88;;;27.80;1.00;;;;;;7390378;19;20022;-70
2023/09/11 10:38:48;;;;;;;9.98;6.15;;;27.80;1.00;;;;;;7390020;19;20038;-70
2023/09/11 10:41:18;;;;;;;13.32;6.00;;;27.90;1.00;;;;;;7390342;19;20006;-69
2023/09/11 10:43:49;;;;;;;11.07;6.05;;;27.90;1.00;;;;;;7389693;19;20451;-69
2023/09/11 10:46:33;;;;;;;10.73;6.10;;;28.00;1.00;;;;;;7389810;19;20348;-69
2023/09/11 10:49:21;;;;;;;12.77;5.93;;;27.90;1.00;;;;;;7388454;19;20039;-70
2023/09/11 10:51:59;;;;;;;5.85;5.25;;;27.80;1.00;;;;;;7388823;19;20463;-70
2023/09/11 10:54:30;;;;;;;12.63;5.55;;;28.10;1.00;;;;;;7387409;19;20039;-68
2023/09/11 10:57:04;;;;;;;10.32;5.85;;;28.00;1.00;;;;;;7389644;19;20394;-70
2023/09/11 10:59:37;;;;;;;7.75;5.25;;;28.10;1.00;;;;;;7389392;19;20048;-70
2023/09/11 11:02:14;;;;;;;9.63;5.38;;;27.80;1.00;;;;;;7387499;19;20487;-70
2023/09/11 11:04:45;;;;;;;8.45;5.53;;;27.80;1.00;;;;;;7386029;19;20040;-70
2023/09/11 11:07:18;;;;;;;11.38;5.05;;;28.10;1.00;;;;;;7390078;19;20019;-69
2023/09/11 11:09:51;;;;;;;10.85;5.07;;;28.00;1.00;;;;;;7388105;19;20498;-69
2023/09/11 11:12:34;;;;;;;9.43;5.20;;;28.10;1.00;;;;;;7388011;19;20019;-70
2023/09/11 11:15:20;;;;;;;7.40;4.70;;;28.20;1.00;;;;;;7388571;19;20014;-71
2023/09/11 11:18:12;;;;;;;8.57;4.97;;;28.30;1.00;;;;;;7389081;19;20014;-70
2023/09/11 11:21:04;;;;;;;8.90;5.30;;;28.60;1.00;;;;;;7388474;19;20787;-70
2023/09/11 11:23:38;;;;;;;9.60;5.00;;;28.70;1.00;;;;;;7387947;19;20054;-69
2023/09/11 11:26:10;;;;;;;11.40;5.15;;;28.30;1.00;;;;;;7388564;19;20025;-68
2023/09/11 11:28:42;;;;;;;7.65;5.53;;;28.30;1.00;;;;;;7388240;19;20033;-68
2023/09/11 11:31:19;;;;;;;12.75;5.60;;;28.30;1.00;;;;;;7389421;19;20031;-69
2023/09/11 11:33:51;;;;;;;9.55;5.35;;;28.50;1.00;;;;;;7390452;19;20011;-70
2023/09/11 11:36:22;;;;;;;9.05;5.85;;;28.60;1.00;;;;;;7388953;19;20474;-69
2023/09/11 11:38:59;;;;;;;14.10;5.15;;;28.50;1.00;;;;;;7388855;19;20014;-68
2023/09/11 11:41:31;;;;;;;8.13;5.47;;;28.60;1.00;;;;;;7388205;19;20096;-68
2023/09/11 11:44:04;;;;;;;8.80;5.32;;;28.60;1.00;;;;;;7387867;19;20014;-67
2023/09/11 11:46:34;;;;;;;10.00;5.78;;;28.20;1.00;;;;;;7386071;19;20544;-70
2023/09/11 11:49:04;;;;;;;7.57;5.72;;;28.30;1.00;;;;;;7388778;19;20020;-69
2023/09/11 11:51:34;;;;;;;12.63;5.28;;;28.80;1.00;;;;;;7387767;19;20007;-68
2023/09/11 11:54:07;;;;;;;9.60;5.22;;;28.90;1.00;;;;;;7387800;19;20023;-69
2023/09/11 11:56:37;;;;;;;7.40;5.13;;;29.00;1.00;;;;;;7387055;19;20017;-69
2023/09/11 11:59:07;;;;;;;9.13;5.35;;;29.00;1.00;;;;;;7388654;19;20428;-69
2023/09/11 12:01:38;;;;;;;8.75;5.20;;;29.10;1.00;;;;;;7388320;19;20011;-70
2023/09/11 12:04:08;;;;;;;10.32;4.85;;;29.00;1.00;;;;;;7388484;19;20092;-70
2023/09/11 12:06:39;;;;;;;12.88;5.45;;;29.00;1.00;;;;;;7388567;19;20077;-68
2023/09/11 12:09:12;;;;;;;9.80;5.60;;;29.00;1.00;;;;;;7386144;19;20014;-68
2023/09/11 12:11:42;;;;;;;6.28;4.88;;;28.80;1.00;;;;;;7385388;19;20018;-69
2023/09/11 12:14:15;;;;;;;10.57;5.05;;;28.50;1.00;;;;;;7384053;19;20027;-68
2023/09/11 12:16:45;;;;;;;11.98;5.15;;;28.50;1.00;;;;;;7384604;19;20029;-68
2023/09/11 12:19:15;;;;;;;8.15;4.75;;;28.90;1.00;;;;;;7384370;19;20015;-69
2023/09/11 12:21:45;;;;;;;9.43;5.50;;;29.10;1.00;;;;;;7384865;19;20100;-69
2023/09/11 12:24:18;;;;;;;8.02;4.95;;;28.90;1.00;;;;;;7382811;19;20085;-68
2023/09/11 12:26:48;;;;;;;6.32;5.28;;;29.00;1.00;;;;;;7384889;19;20017;-70
2023/09/11 12:29:18;;;;;;;12.73;4.93;;;29.20;1.00;;;;;;7387616;19;20019;-69
2023/09/11 12:31:48;;;;;;;6.60;4.70;;;29.40;1.00;;;;;;7388862;19;20027;-67
2023/09/11 12:34:18;;;;;;;9.43;5.00;;;29.20;1.00;;;;;;7389693;19;20014;-68
2023/09/11 12:36:48;;;;;;;8.40;5.20;;;29.40;1.00;;;;;;7389319;19;20463;-68
2023/09/11 12:39:21;;;;;;;8.20;4.55;;;29.80;1.00;;;;;;7389324;19;20074;-68
2023/09/11 12:41:51;;;;;;;9.23;5.20;;;29.70;1.00;;;;;;7388507;19;20141;-70
2023/09/11 12:44:23;;;;;;;7.97;5.45;;;29.80;1.00;;;;;;7390384;19;20316;-68
2023/09/11 12:46:54;;;;;;;6.70;4.93;;;29.80;1.00;;;;;;7410076;19;20462;-69
2023/09/11 12:49:24;;;;;;;9.35;4.90;;;29.70;1.00;;;;;;7408561;19;20143;-69
2023/09/11 12:52:04;;;;;;;7.57;4.82;;;29.50;1.00;;;;;;7401566;19;20014;-66
2023/09/11 12:54:37;;;;;;;7.85;4.68;;;29.30;1.00;;;;;;7388069;19;20019;-68
2023/09/11 12:57:18;;;;;;;7.65;4.60;;;29.20;1.00;;;;;;7386667;19;20078;-68
2023/09/11 12:59:48;;;;;;;10.98;4.65;;;29.40;1.00;;;;;;7384105;19;20383;-69
2023/09/11 13:02:20;;;;;;;12.07;4.95;;;29.50;1.00;;;;;;7387726;19;20458;-70
2023/09/11 13:04:51;;;;;;;11.35;5.00;;;29.50;1.00;;;;;;7388171;19;20011;-70